This is the latest recevied weather packets stored in our database for station/object OSTR-WX. If no packets are shown the sender has not sent any weather packets the latest 10 day(s).
| Time | Temp. | Humidity | Pressure | Rain* | Wind** | Luminosity | Snow |
|---|---|---|---|---|---|---|---|
| 1777388884 | 17.78° C | 26% | 1022.8 hPa | - | - | - | - |
| 1777387928 | 17.22° C | 26% | 1022.9 hPa | - | - | - | - |
| 1777386976 | 16.67° C | 28% | 1022.9 hPa | - | - | - | - |
| 1777386970 | 16.67° C | 28% | 1022.9 hPa | - | - | - | - |
| 1777386019 | 15.56° C | 29% | 1023.2 hPa | - | - | - | - |
| 1777386013 | 15.56° C | 29% | 1023.2 hPa | - | - | - | - |
| 1777385063 | 15.56° C | 29% | 1023.3 hPa | - | - | - | - |
| 1777385056 | 15.56° C | 29% | 1023.3 hPa | - | - | - | - |
| 1777384101 | 16.11° C | 30% | 1023.4 hPa | - | - | - | - |
| 1777383148 | 16.11° C | 30% | 1023.4 hPa | - | - | - | - |
| 1777383141 | 16.11° C | 30% | 1023.4 hPa | - | - | - | - |
| 1777382192 | 16.11° C | 28% | 1023.5 hPa | - | - | - | - |
| 1777382186 | 16.11° C | 28% | 1023.5 hPa | - | - | - | - |
| 1777381235 | 16.11° C | 28% | 1023.6 hPa | - | - | - | - |
| 1777381229 | 16.11° C | 28% | 1023.6 hPa | - | - | - | - |
| 1777380278 | 16.67° C | 31% | 1023.5 hPa | - | - | - | - |
| 1777380271 | 16.67° C | 31% | 1023.5 hPa | - | - | - | - |
| 1777379315 | 16.67° C | 34% | 1023.6 hPa | - | - | - | - |
| 1777378358 | 16.11° C | 33% | 1023.7 hPa | - | - | - | - |
| 1777377402 | 15.56° C | 31% | 1023.8 hPa | - | - | - | - |
| 1777376444 | 16.11° C | 35% | 1023.8 hPa | - | - | - | - |
| 1777375487 | 15.56° C | 34% | 1023.9 hPa | - | - | - | - |
| 1777374537 | 15.56° C | 35% | 1024.1 hPa | - | - | - | - |
| 1777374530 | 15.56° C | 35% | 1024.1 hPa | - | - | - | - |
| 1777373573 | 15° C | 40% | 1024.2 hPa | - | - | - | - |
* Rain since midnight (hover to see other rain measurements)
** Current wind speed in m/s (hover to see current wind gust speed)